Time;durP1;ratioP1;P1;durP2;ratioP2;P2;SDS_P1;SDS_P2;PMS_P1;PMS_P2;Temp;Humidity;BMP_temperature;BMP_pressure;BME280_temperature;BME280_humidity;BME280_pressure;Samples;Min_cycle;Max_cycle;Signal;HPM_P1;HPM_P2
2023/10/19 00:03:49;;;;;;;14.43;7.97;;;;;;;10.56;47.29;99329.53;7763419;32;39853;-86
2023/10/19 00:12:29;;;;;;;12.70;7.75;;;;;;;10.41;47.88;99289.56;7777965;32;36984;-87
2023/10/19 00:16:53;;;;;;;13.02;7.53;;;;;;;10.63;47.22;99286.41;7793393;32;39273;-86
2023/10/19 00:21:27;;;;;;;18.83;8.48;;;;;;;10.71;46.99;99272.19;7780383;32;39962;-86
2023/10/19 00:25:49;;;;;;;14.32;7.57;;;;;;;10.42;47.50;99278.38;7793037;32;38093;-86
2023/10/19 00:30:08;;;;;;;14.40;8.05;;;;;;;10.39;47.67;99278.94;7793334;32;37154;-86
2023/10/19 00:34:26;;;;;;;13.62;7.45;;;;;;;10.69;47.02;99277.91;7766073;32;38107;-87
2023/10/19 00:38:50;;;;;;;15.65;7.35;;;;;;;10.53;47.13;99268.22;7766108;32;39906;-87
2023/10/19 00:43:10;;;;;;;12.70;7.37;;;;;;;10.68;47.02;99253.66;7765846;32;37634;-86
2023/10/19 00:47:30;;;;;;;13.05;7.60;;;;;;;10.40;47.94;99252.50;7766213;32;37349;-86
2023/10/19 00:52:02;;;;;;;18.60;8.38;;;;;;;10.55;47.71;99257.84;7779034;32;39061;-85
2023/10/19 00:56:20;;;;;;;16.58;8.05;;;;;;;10.69;47.35;99255.28;7780697;32;39658;-85
2023/10/19 01:00:43;;;;;;;17.10;8.27;;;;;;;10.58;47.43;99251.03;7778972;32;37902;-85
2023/10/19 01:05:00;;;;;;;14.20;7.97;;;;;;;10.43;47.94;99230.94;7792923;32;37773;-85
2023/10/19 01:09:20;;;;;;;18.70;8.98;;;;;;;10.66;47.38;99217.72;7792279;32;40315;-84
2023/10/19 01:13:36;;;;;;;16.70;8.38;;;;;;;10.08;48.94;99196.59;7751903;32;39861;-85
2023/10/19 01:17:56;;;;;;;16.20;8.43;;;;;;;10.52;47.94;99196.56;7765376;32;38537;-84
2023/10/19 01:22:16;;;;;;;21.05;8.60;;;;;;;10.29;48.82;99191.81;7765382;32;37053;-84
2023/10/19 01:26:37;;;;;;;19.02;9.10;;;;;;;10.10;49.45;99197.91;7765499;32;39360;-86
2023/10/19 01:30:53;;;;;;;19.60;8.55;;;;;;;9.99;49.92;99201.81;7765582;32;39897;-85
2023/10/19 01:35:11;;;;;;;13.30;8.40;;;;;;;10.41;48.94;99184.09;7765272;32;37895;-86
2023/10/19 01:39:27;;;;;;;13.70;8.48;;;;;;;10.40;48.85;99177.03;7765257;32;37066;-84
2023/10/19 01:43:46;;;;;;;17.92;8.82;;;;;;;10.32;49.02;99172.19;7765296;32;40210;-86
2023/10/19 01:48:03;;;;;;;18.45;9.57;;;;;;;10.32;49.17;99175.72;7765252;32;39902;-85
2023/10/19 01:52:20;;;;;;;16.92;9.30;;;;;;;10.18;49.46;99176.66;7790792;32;37954;-85
2023/10/19 01:56:38;;;;;;;21.15;9.63;;;;;;;9.88;49.96;99175.75;7791321;32;37258;-85
2023/10/19 02:00:59;;;;;;;15.65;9.43;;;;;;;9.89;50.38;99169.22;7778569;32;39541;-86
2023/10/19 02:05:18;;;;;;;15.73;9.25;;;;;;;10.31;49.20;99168.66;7790994;32;40910;-85
2023/10/19 02:09:35;;;;;;;16.83;9.00;;;;;;;10.15;49.80;99169.84;7767028;32;37664;-85
2023/10/19 02:13:54;;;;;;;20.25;9.85;;;;;;;9.91;50.62;99156.13;7764938;32;37309;-85
2023/10/19 02:18:10;;;;;;;19.25;9.88;;;;;;;10.24;49.75;99156.44;7751144;32;39342;-84
2023/10/19 02:22:28;;;;;;;21.70;11.55;;;;;;;10.33;49.89;99143.84;7764540;32;39748;-85
2023/10/19 02:26:46;;;;;;;18.60;9.82;;;;;;;9.79;51.57;99142.84;7763721;32;38417;-85
2023/10/19 02:31:18;;;;;;;21.37;10.98;;;;;;;10.18;50.88;99146.69;7773847;32;38066;-85
2023/10/19 02:35:35;;;;;;;15.40;9.30;;;;;;;10.04;51.08;99144.59;7791643;32;39898;-86
2023/10/19 02:39:52;;;;;;;16.90;9.30;;;;;;;10.15;50.98;99132.50;7791458;32;40023;-86
2023/10/19 02:44:19;;;;;;;18.30;9.52;;;;;;;10.15;50.79;99124.34;7791273;32;38566;-86
2023/10/19 02:48:36;;;;;;;18.65;9.77;;;;;;;10.31;50.43;99114.19;7771668;32;37488;-85
2023/10/19 02:52:56;;;;;;;20.15;10.00;;;;;;;10.05;51.31;99110.81;7764143;32;40067;-85
2023/10/19 02:57:13;;;;;;;17.12;10.20;;;;;;;10.36;50.70;99105.12;7763935;32;40769;-85
2023/10/19 03:01:34;;;;;;;19.90;10.57;;;;;;;9.98;51.63;99104.88;7763718;32;37891;-85
2023/10/19 03:05:51;;;;;;;20.12;11.02;;;;;;;10.39;50.97;99088.22;7777409;32;36837;-85
2023/10/19 03:10:08;;;;;;;19.50;10.77;;;;;;;9.98;52.20;99087.75;7790257;32;40131;-85
2023/10/19 03:14:27;;;;;;;17.48;10.52;;;;;;;10.17;51.94;99075.03;7763526;32;39459;-84
2023/10/19 03:18:43;;;;;;;20.40;11.57;;;;;;;10.37;51.61;99057.72;7763182;32;38711;-85
2023/10/19 03:23:02;;;;;;;23.80;12.20;;;;;;;10.20;52.48;99046.44;7790465;32;37343;-85
2023/10/19 03:27:21;;;;;;;23.55;12.30;;;;;;;10.20;52.68;99062.75;7790400;32;38286;-84
2023/10/19 03:31:47;;;;;;;22.13;13.00;;;;;;;10.11;53.41;99054.41;7790252;32;40052;-84
2023/10/19 03:36:04;;;;;;;25.27;14.20;;;;;;;10.11;54.07;99054.41;7790141;32;38746;-85
2023/10/19 03:40:32;;;;;;;28.92;14.82;;;;;;;10.03;54.80;99055.00;7793325;32;38118;-84
2023/10/19 03:49:10;;;;;;;26.75;15.20;;;;;;;9.57;57.16;99028.97;7779837;32;39825;-85
2023/10/19 03:53:27;;;;;;;24.52;15.23;;;;;;;9.70;57.10;99022.09;7775601;32;38550;-84
2023/10/19 03:57:55;;;;;;;26.20;15.50;;;;;;;9.60;57.63;99028.41;7766478;32;38122;-84
2023/10/19 04:02:16;;;;;;;26.67;15.23;;;;;;;9.34;58.67;99025.06;7771252;32;39317;-84
2023/10/19 04:06:33;;;;;;;24.55;14.77;;;;;;;9.36;59.01;99009.25;7793585;32;40791;-84
2023/10/19 04:11:08;;;;;;;25.80;15.70;;;;;;;9.21;59.16;99004.75;7793381;32;38683;-84
2023/10/19 04:15:26;;;;;;;30.52;14.80;;;;;;;9.30;59.45;98996.81;7793503;32;36969;-85
2023/10/19 04:19:43;;;;;;;29.75;15.55;;;;;;;9.15;60.59;98992.28;7793301;32;39060;-85
2023/10/19 04:24:00;;;;;;;26.25;15.52;;;;;;;9.30;60.32;98981.28;7793101;32;40130;-85
2023/10/19 04:28:21;;;;;;;25.80;16.20;;;;;;;9.29;60.26;98982.38;7787167;32;38614;-84
2023/10/19 04:32:39;;;;;;;28.73;16.45;;;;;;;9.27;60.64;98981.06;7766048;32;37306;-84
2023/10/19 04:36:57;;;;;;;26.35;16.75;;;;;;;9.39;60.38;98973.34;7766095;32;39557;-84
2023/10/19 04:41:15;;;;;;;26.25;15.93;;;;;;;9.24;61.15;98966.09;7765756;32;40732;-84
2023/10/19 04:45:31;;;;;;;29.70;16.65;;;;;;;9.39;60.87;98954.31;7765853;32;37846;-84
2023/10/19 04:49:47;;;;;;;26.85;15.90;;;;;;;9.19;61.72;98957.97;7765263;32;37196;-84
2023/10/19 04:54:04;;;;;;;28.62;17.33;;;;;;;9.16;61.97;98961.28;7765806;32;40168;-84
2023/10/19 04:58:21;;;;;;;26.27;16.05;;;;;;;9.42;61.13;98966.50;7765647;32;39725;-84
2023/10/19 05:02:38;;;;;;;26.73;17.30;;;;;;;9.33;61.54;98956.25;7765492;32;37987;-85
2023/10/19 05:06:55;;;;;;;27.60;16.70;;;;;;;9.19;62.10;98941.66;7765678;32;37642;-84
2023/10/19 05:11:11;;;;;;;30.23;16.92;;;;;;;9.17;62.31;98943.84;7780055;32;39325;-84
2023/10/19 05:15:28;;;;;;;27.08;15.75;;;;;;;9.17;62.31;98947.38;7792668;32;40887;-84
2023/10/19 05:19:44;;;;;;;33.78;18.37;;;;;;;9.44;61.41;98939.84;7792597;32;38102;-85
2023/10/19 05:24:01;;;;;;;28.25;16.67;;;;;;;8.74;63.69;98947.09;7792482;32;37890;-84
2023/10/19 05:28:18;;;;;;;31.08;17.35;;;;;;;9.20;62.18;98944.09;7791403;32;39316;-83
2023/10/19 05:32:35;;;;;;;34.15;16.58;;;;;;;9.05;62.85;98936.03;7792602;32;39871;-84
2023/10/19 05:36:51;;;;;;;32.25;16.70;;;;;;;9.04;63.04;98950.75;7792418;32;38022;-84
2023/10/19 05:41:08;;;;;;;26.92;16.37;;;;;;;9.19;62.76;98938.94;7792332;32;37427;-85
2023/10/19 05:45:26;;;;;;;24.95;15.90;;;;;;;8.98;63.69;98939.06;7787839;32;40164;-84
2023/10/19 05:49:43;;;;;;;29.23;17.75;;;;;;;8.39;65.73;98935.28;7790650;32;40944;-84
2023/10/19 05:54:03;;;;;;;34.42;19.00;;;;;;;8.94;64.10;98924.44;7781219;32;38034;-85
2023/10/19 05:58:20;;;;;;;29.25;16.58;;;;;;;8.85;64.62;98931.56;7771459;32;37951;-86
2023/10/19 06:02:36;;;;;;;29.52;16.58;;;;;;;9.15;63.64;98930.53;7762978;32;39306;-86
2023/10/19 06:06:53;;;;;;;31.48;17.62;;;;;;;9.14;63.85;98920.78;7783381;32;39695;-85
2023/10/19 06:11:09;;;;;;;33.85;16.87;;;;;;;9.13;63.99;98927.28;7775435;32;37382;-85
2023/10/19 06:15:25;;;;;;;29.23;17.00;;;;;;;9.03;64.35;98928.16;7764332;32;37936;-85
2023/10/19 06:19:42;;;;;;;29.30;17.83;;;;;;;8.97;64.83;98923.88;7763341;32;39091;-84
2023/10/19 06:23:59;;;;;;;30.08;17.80;;;;;;;9.13;64.40;98921.06;7764585;32;40786;-84
2023/10/19 06:28:15;;;;;;;31.80;17.73;;;;;;;8.77;65.69;98930.25;7764374;32;38760;-84
2023/10/19 06:32:31;;;;;;;33.67;17.77;;;;;;;8.76;65.34;98928.63;7764563;32;38239;-79
2023/10/19 06:36:50;;;;;;;28.92;16.58;;;;;;;9.26;63.85;98927.75;7764611;32;39237;-74
2023/10/19 06:41:16;;;;;;;32.30;17.77;;;;;;;9.13;66.74;98908.25;7764303;32;39265;-76
2023/10/19 06:45:33;;;;;;;29.23;17.67;;;;;;;8.98;65.14;98922.75;7773863;32;37775;-76
2023/10/19 06:49:50;;;;;;;32.17;16.75;;;;;;;9.26;64.19;98920.41;7791360;32;37286;-81
2023/10/19 06:54:08;;;;;;;32.30;17.62;;;;;;;9.31;64.09;98917.66;7791149;32;39340;-80
2023/10/19 06:58:26;;;;;;;30.10;16.90;;;;;;;9.23;64.44;98925.59;7790996;32;40712;-81
2023/10/19 07:02:43;;;;;;;28.85;18.10;;;;;;;9.19;65.30;98906.31;7768511;32;37392;-80
2023/10/19 07:07:00;;;;;;;31.75;16.77;;;;;;;9.49;63.72;98899.00;7779420;32;37270;-79
2023/10/19 07:11:17;;;;;;;31.62;18.40;;;;;;;9.41;63.98;98886.81;7790675;32;39204;-80
2023/10/19 07:15:34;;;;;;;28.33;16.80;;;;;;;9.27;64.65;98881.22;7793933;32;40928;-80
2023/10/19 07:19:50;;;;;;;30.88;17.50;;;;;;;9.17;65.07;98879.38;7793853;32;37897;-80
2023/10/19 07:24:09;;;;;;;33.17;18.30;;;;;;;9.18;65.09;98875.59;7793422;32;37769;-79
2023/10/19 07:28:26;;;;;;;34.35;18.95;;;;;;;9.27;64.75;98873.06;7777505;32;39304;-79
2023/10/19 07:32:42;;;;;;;32.17;17.92;;;;;;;9.37;64.42;98886.56;7792050;32;40745;-80
2023/10/19 07:36:59;;;;;;;29.02;17.08;;;;;;;9.27;65.40;98878.50;7792813;32;37763;-80
2023/10/19 07:41:15;;;;;;;28.58;17.33;;;;;;;9.43;64.59;98862.03;7792235;32;37896;-80
2023/10/19 07:45:34;;;;;;;33.20;17.73;;;;;;;9.24;65.16;98853.78;7772367;32;40135;-79
2023/10/19 07:49:52;;;;;;;29.45;16.73;;;;;;;9.43;64.68;98846.53;7765235;32;39689;-80
2023/10/19 07:54:08;;;;;;;30.25;17.30;;;;;;;9.56;64.28;98843.13;7765910;32;37925;-79
2023/10/19 07:58:25;;;;;;;30.10;16.20;;;;;;;9.72;63.79;98835.59;7764956;32;38174;-79
2023/10/19 08:02:45;;;;;;;27.60;15.57;;;;;;;9.72;63.96;98818.47;7765901;32;39614;-79
2023/10/19 08:07:01;;;;;;;28.00;17.52;;;;;;;9.91;63.18;98823.97;7765534;32;39870;-79
2023/10/19 08:11:17;;;;;;;31.42;17.83;;;;;;;9.80;63.45;98826.00;7764873;32;37839;-81
2023/10/19 08:15:34;;;;;;;25.42;15.63;;;;;;;9.96;62.96;98826.63;7765772;32;38038;-79
2023/10/19 08:19:50;;;;;;;30.17;16.73;;;;;;;9.77;63.74;98824.66;7766502;32;39636;-78
2023/10/19 08:24:07;;;;;;;30.10;16.33;;;;;;;9.99;63.07;98809.72;7773417;32;40753;-79
2023/10/19 08:28:23;;;;;;;27.37;16.20;;;;;;;9.81;63.93;98815.91;7792093;32;38717;-79
2023/10/19 08:32:41;;;;;;;26.80;16.00;;;;;;;9.84;64.21;98809.91;7792175;32;38080;-79
2023/10/19 08:36:58;;;;;;;27.85;15.73;;;;;;;9.82;64.33;98802.03;7792470;32;40314;-80
2023/10/19 08:41:15;;;;;;;29.45;15.52;;;;;;;10.15;63.17;98794.78;7791218;32;40720;-79
2023/10/19 08:45:32;;;;;;;29.30;16.15;;;;;;;10.10;62.95;98797.56;7792707;32;38734;-79
2023/10/19 08:49:49;;;;;;;26.52;15.35;;;;;;;10.25;62.76;98788.38;7760610;32;36924;-78
2023/10/19 08:54:06;;;;;;;24.35;15.20;;;;;;;10.29;62.67;98773.06;7771752;32;40260;-79
2023/10/19 08:58:23;;;;;;;24.02;14.80;;;;;;;9.98;63.95;98783.56;7777976;32;40559;-80
2023/10/19 09:02:39;;;;;;;22.83;14.90;;;;;;;10.37;62.89;98779.81;7778763;32;38754;-81
2023/10/19 09:06:56;;;;;;;27.23;15.02;;;;;;;10.35;62.91;98779.31;7789056;32;37415;-81
2023/10/19 09:11:12;;;;;;;23.83;14.13;;;;;;;10.32;63.10;98775.25;7784850;32;39477;-81
2023/10/19 09:15:35;;;;;;;20.95;12.80;;;;;;;10.74;62.36;98777.34;7792144;32;39753;-80
2023/10/19 09:19:53;;;;;;;25.58;13.88;;;;;;;11.11;61.28;98776.44;7779548;32;38038;-81
2023/10/19 09:24:10;;;;;;;22.48;14.70;;;;;;;10.74;62.79;98771.88;7792265;32;37433;-81
2023/10/19 09:28:26;;;;;;;25.42;14.90;;;;;;;10.70;63.43;98763.50;7778618;32;39035;-82
2023/10/19 09:32:43;;;;;;;25.70;14.45;;;;;;;11.52;61.04;98772.97;7786540;32;184770;-80
2023/10/19 09:37:00;;;;;;;22.20;13.25;;;;;;;11.38;61.34;98761.22;7776272;32;37941;-83
2023/10/19 09:41:28;;;;;;;28.20;14.98;;;;;;;12.19;58.52;98752.47;7774201;32;37054;-80
2023/10/19 09:45:51;;;;;;;22.85;13.32;;;;;;;12.14;58.83;98752.56;7765078;32;39385;-81
2023/10/19 09:50:08;;;;;;;27.92;15.10;;;;;;;12.54;57.58;98741.84;7751739;32;39884;-80
2023/10/19 09:54:33;;;;;;;22.33;14.10;;;;;;;11.71;59.13;98740.09;7774370;32;37947;-80
2023/10/19 09:58:58;;;;;;;25.20;14.93;;;;;;;12.04;59.04;98748.16;7781168;32;37959;-81
2023/10/19 10:03:43;;;;;;;25.52;13.65;;;;;;;12.54;57.67;98731.72;7770428;32;40131;-82
2023/10/19 10:08:18;;;;;;;27.08;14.57;;;;;;;12.88;56.55;98716.66;7783115;32;40921;-82
2023/10/19 10:12:35;;;;;;;29.98;15.10;;;;;;;12.54;57.37;98717.25;7792184;32;38617;-83
2023/10/19 10:17:02;;;;;;;25.00;14.45;;;;;;;12.06;58.83;98712.34;7788991;32;37944;-80
2023/10/19 10:21:20;;;;;;;29.75;16.00;;;;;;;11.74;59.73;98693.03;7790612;32;38630;-82
2023/10/19 10:25:38;;;;;;;26.52;15.10;;;;;;;12.24;58.49;98692.25;7777520;32;39838;-82
2023/10/19 10:29:56;;;;;;;28.33;15.25;;;;;;;12.40;57.75;98696.22;7791498;32;37427;-82
2023/10/19 10:34:42;;;;;;;27.48;15.95;;;;;;;12.74;57.29;98683.09;7790349;32;38510;-82
2023/10/19 10:39:06;;;;;;;27.87;15.70;;;;;;;12.57;58.02;98667.37;7791453;32;39295;-83
2023/10/19 10:43:23;;;;;;;26.00;15.10;;;;;;;13.05;57.52;98654.91;7775144;32;40857;-83
2023/10/19 10:47:44;;;;;;;26.73;15.43;;;;;;;13.70;56.07;98648.69;7764883;32;38003;-80
2023/10/19 10:52:01;;;;;;;26.85;15.98;;;;;;;14.28;54.22;98641.12;7766776;32;37432;-81
2023/10/19 10:56:18;;;;;;;25.42;15.35;;;;;;;13.57;55.32;98643.34;7777883;32;40147;-71
2023/10/19 11:00:42;;;;;;;31.73;16.65;;;;;;;14.41;55.64;98619.31;7775093;32;39963;-79
2023/10/19 11:04:58;;;;;;;28.08;16.50;;;;;;;13.98;54.09;98609.22;7765561;32;38671;-84
2023/10/19 11:09:28;;;;;;;31.12;16.85;;;;;;;14.08;53.53;98597.94;7776957;32;37013;-82
2023/10/19 11:13:44;;;;;;;28.30;16.50;;;;;;;13.85;54.53;98594.56;7789946;32;40049;-81
2023/10/19 11:18:01;;;;;;;27.40;16.98;;;;;;;13.66;55.25;98597.59;7776534;32;39737;-80
2023/10/19 11:22:18;;;;;;;26.70;15.98;;;;;;;13.64;55.80;98594.38;7768274;32;38771;-80
2023/10/19 11:26:40;;;;;;;31.90;16.33;;;;;;;13.62;55.48;98588.44;7776003;32;37351;-80
2023/10/19 11:31:18;;;;;;;28.08;16.35;;;;;;;13.14;57.21;98593.66;7768365;32;39892;-80
2023/10/19 11:35:34;;;;;;;27.48;15.88;;;;;;;13.21;57.02;98581.41;7767594;32;39999;-81
2023/10/19 11:39:52;;;;;;;30.40;16.92;;;;;;;12.90;57.86;98598.69;7775693;32;38702;-80
2023/10/19 11:44:09;;;;;;;30.88;16.17;;;;;;;13.24;56.73;98597.19;7774774;32;37166;-81
2023/10/19 11:48:26;;;;;;;30.08;16.52;;;;;;;12.65;58.01;98592.81;7776178;32;40315;-81
2023/10/19 11:52:43;;;;;;;31.48;17.12;;;;;;;12.67;58.01;98585.09;7773970;32;40542;-80
2023/10/19 11:56:59;;;;;;;29.55;15.93;;;;;;;12.98;57.48;98569.78;7774737;32;38689;-81
2023/10/19 12:01:18;;;;;;;25.10;16.23;;;;;;;13.32;56.58;98569.06;7778537;32;37206;-80
2023/10/19 12:05:36;;;;;;;26.62;16.52;;;;;;;12.87;57.50;98569.25;7779054;32;39386;-79
2023/10/19 12:09:53;;;;;;;30.58;17.00;;;;;;;12.98;57.75;98556.88;7778677;32;40588;-80
2023/10/19 12:14:11;;;;;;;35.72;17.95;;;;;;;13.02;57.69;98568.84;7781643;32;38005;-80
2023/10/19 12:18:28;;;;;;;35.63;17.42;;;;;;;12.98;58.00;98539.69;7790815;32;37515;-80
2023/10/19 12:22:46;;;;;;;33.42;16.98;;;;;;;12.64;58.91;98536.53;7769578;32;38821;-81
2023/10/19 12:27:03;;;;;;;27.35;15.88;;;;;;;12.75;58.81;98526.91;7778246;32;40319;-81
2023/10/19 12:31:21;;;;;;;29.95;17.50;;;;;;;12.93;58.47;98522.28;7790392;32;38091;-80
2023/10/19 12:35:53;;;;;;;32.40;17.95;;;;;;;12.84;58.72;98526.12;7779449;32;37971;-81
2023/10/19 12:40:26;;;;;;;39.30;20.37;;;;;;;12.95;58.29;98509.09;7768529;32;38001;-80
2023/10/19 12:44:43;;;;;;;31.62;18.42;;;;;;;12.70;59.41;98493.44;7765992;32;39739;-81
2023/10/19 12:49:08;;;;;;;33.55;18.95;;;;;;;12.30;60.71;98499.72;7765845;32;37853;-80
2023/10/19 12:53:25;;;;;;;35.63;20.12;;;;;;;12.51;60.29;98504.63;7765938;32;37875;-80
2023/10/19 12:57:41;;;;;;;32.53;19.08;;;;;;;12.41;60.58;98494.78;7765728;32;39296;-81
2023/10/19 13:01:58;;;;;;;35.63;18.75;;;;;;;12.58;60.13;98497.56;7765572;32;39920;-80
2023/10/19 13:06:15;;;;;;;33.85;19.85;;;;;;;12.47;60.77;98492.69;7765566;32;37831;-80
2023/10/19 13:10:33;;;;;;;35.35;18.67;;;;;;;12.54;60.76;98493.88;7765144;32;37285;-81
2023/10/19 13:14:52;;;;;;;34.55;19.48;;;;;;;12.58;60.82;98488.56;7765709;32;40069;-80
2023/10/19 13:19:12;;;;;;;37.88;20.92;;;;;;;12.80;60.35;98490.41;7764295;32;40758;-80
2023/10/19 13:23:30;;;;;;;43.72;21.87;;;;;;;12.86;60.21;98482.84;7765100;32;38598;-80
2023/10/19 13:27:46;;;;;;;34.72;20.23;;;;;;;12.78;60.58;98459.84;7764182;32;37232;-81
2023/10/19 13:32:03;;;;;;;38.03;21.00;;;;;;;12.89;60.56;98465.81;7765480;32;39896;-80
2023/10/19 13:36:19;;;;;;;35.55;20.83;;;;;;;12.87;60.79;98460.66;7782620;32;40806;-81
2023/10/19 13:40:37;;;;;;;39.05;21.30;;;;;;;12.72;61.19;98459.16;7791274;32;38930;-80
2023/10/19 13:44:54;;;;;;;34.95;19.55;;;;;;;12.95;60.78;98446.19;7791436;32;38315;-80
2023/10/19 13:49:10;;;;;;;35.58;20.80;;;;;;;12.91;60.99;98447.16;7791577;32;39337;-80
2023/10/19 13:53:27;;;;;;;34.67;21.58;;;;;;;12.68;61.88;98438.28;7791920;32;39801;-79
2023/10/19 13:57:45;;;;;;;36.65;20.48;;;;;;;12.81;61.14;98433.78;7790832;32;38029;-80
2023/10/19 14:02:01;;;;;;;36.08;21.83;;;;;;;12.50;62.10;98448.34;7791865;32;36147;-80
2023/10/19 14:06:17;;;;;;;36.75;20.85;;;;;;;12.35;62.93;98434.00;7776356;32;39308;-79
2023/10/19 14:10:35;;;;;;;38.28;20.95;;;;;;;12.56;62.29;98425.22;7791442;32;40838;-80
2023/10/19 14:14:51;;;;;;;40.22;21.55;;;;;;;12.68;62.13;98416.41;7791209;32;37982;-79
2023/10/19 14:19:08;;;;;;;44.30;21.98;;;;;;;12.51;62.83;98412.50;7785962;32;37292;-80
2023/10/19 14:23:25;;;;;;;37.47;21.37;;;;;;;12.46;63.01;98414.56;7762724;32;39146;-80
2023/10/19 14:27:42;;;;;;;32.90;20.98;;;;;;;12.49;62.90;98408.47;7763184;32;39880;-80
2023/10/19 14:31:59;;;;;;;35.78;21.80;;;;;;;12.67;62.44;98403.84;7763585;32;37671;-80
2023/10/19 14:36:15;;;;;;;43.17;22.27;;;;;;;12.78;62.03;98395.00;7763249;32;37228;-79
2023/10/19 14:40:32;;;;;;;37.85;20.58;;;;;;;12.12;63.80;98399.66;7763960;32;40122;-80
2023/10/19 14:44:48;;;;;;;36.22;21.30;;;;;;;12.10;64.26;98397.25;7763501;32;40714;-80
2023/10/19 14:49:06;;;;;;;40.53;21.37;;;;;;;12.52;63.01;98388.69;7769576;32;39241;-79
2023/10/19 14:53:22;;;;;;;37.33;21.45;;;;;;;11.77;65.55;98394.03;7791157;32;38030;-80
2023/10/19 14:57:45;;;;;;;37.53;21.08;;;;;;;11.86;65.84;98391.34;7789698;32;40074;-79
2023/10/19 15:02:01;;;;;;;40.35;20.70;;;;;;;12.36;63.85;98372.72;7790538;32;40793;-79
2023/10/19 15:06:18;;;;;;;39.63;22.55;;;;;;;12.15;64.90;98371.72;7781670;32;37943;-80
2023/10/19 15:10:35;;;;;;;34.40;20.95;;;;;;;12.42;63.83;98369.84;7789750;32;38031;-80
2023/10/19 15:14:53;;;;;;;38.53;21.10;;;;;;;12.30;64.39;98360.34;7790177;32;40134;-81
2023/10/19 15:19:12;;;;;;;42.33;23.42;;;;;;;12.69;63.20;98353.16;7789443;32;39875;-78
2023/10/19 15:23:29;;;;;;;42.65;21.67;;;;;;;12.54;63.82;98359.12;7789972;32;38000;-80
2023/10/19 15:27:45;;;;;;;43.78;22.50;;;;;;;12.32;64.58;98366.31;7789020;32;37977;-79
2023/10/19 15:32:02;;;;;;;44.95;22.87;;;;;;;12.10;65.32;98364.47;7790025;32;40156;-80
2023/10/19 15:36:18;;;;;;;48.65;23.67;;;;;;;12.36;64.83;98339.94;7792650;32;40754;-80
2023/10/19 15:40:35;;;;;;;45.30;22.40;;;;;;;11.98;66.32;98356.06;7792630;32;37875;-80
2023/10/19 15:44:51;;;;;;;48.90;24.65;;;;;;;11.94;66.45;98342.25;7793417;32;37949;-80
2023/10/19 15:49:08;;;;;;;51.03;23.55;;;;;;;12.28;65.37;98332.56;7792525;32;39440;-80
2023/10/19 15:53:28;;;;;;;47.47;23.65;;;;;;;12.48;64.50;98331.13;7793503;32;40020;-80
2023/10/19 15:57:44;;;;;;;40.65;22.08;;;;;;;12.21;65.59;98326.72;7792649;32;38852;-73
2023/10/19 16:02:00;;;;;;;52.28;24.48;;;;;;;12.50;67.79;98342.53;7792709;32;37000;-80
2023/10/19 16:06:17;;;;;;;48.72;24.98;;;;;;;12.86;63.86;98330.50;7784842;32;39120;-79
2023/10/19 16:10:33;;;;;;;56.25;24.60;;;;;;;12.77;63.83;98318.75;7792422;32;39961;-80
2023/10/19 16:14:50;;;;;;;50.42;23.98;;;;;;;12.78;63.83;98326.66;7793105;32;38118;-80
2023/10/19 16:19:08;;;;;;;53.42;24.73;;;;;;;12.86;63.83;98322.28;7792338;32;37296;-79
2023/10/19 16:23:24;;;;;;;49.90;24.65;;;;;;;12.79;64.23;98324.69;7792923;32;39354;-81
2023/10/19 16:27:41;;;;;;;47.62;23.45;;;;;;;12.81;64.06;98332.59;7792656;32;39966;-81
2023/10/19 16:31:59;;;;;;;50.03;23.38;;;;;;;12.84;63.81;98321.00;7792177;32;38061;-80
2023/10/19 16:36:15;;;;;;;52.22;23.42;;;;;;;12.82;64.11;98334.22;7792779;32;37472;-80
2023/10/19 16:40:31;;;;;;;44.30;23.10;;;;;;;12.87;64.13;98321.16;7778209;32;39343;-80
2023/10/19 16:44:50;;;;;;;46.92;23.35;;;;;;;12.73;64.07;98318.59;7792017;32;40074;-79
2023/10/19 16:49:07;;;;;;;47.17;21.80;;;;;;;12.86;63.89;98305.88;7792276;32;38787;-79
2023/10/19 16:53:23;;;;;;;48.22;21.23;;;;;;;12.65;64.64;98307.66;7792414;32;37905;-79
2023/10/19 16:57:39;;;;;;;42.62;20.83;;;;;;;12.65;64.45;98303.00;7778021;32;39391;-80
2023/10/19 17:01:57;;;;;;;45.17;21.87;;;;;;;13.07;63.09;98305.22;7791752;32;39926;-80
2023/10/19 17:06:13;;;;;;;46.00;22.62;;;;;;;13.25;62.31;98297.78;7770340;32;38347;-79
2023/10/19 17:10:30;;;;;;;44.90;22.48;;;;;;;12.90;63.62;98289.62;7791726;32;37328;-80
2023/10/19 17:14:47;;;;;;;48.63;22.77;;;;;;;12.88;63.69;98280.94;7792442;32;40116;-80
2023/10/19 17:19:03;;;;;;;47.17;21.92;;;;;;;12.91;63.14;98267.41;7791938;32;39657;-80
2023/10/19 17:23:20;;;;;;;44.47;22.33;;;;;;;12.94;62.73;98260.50;7791655;32;38111;-80
2023/10/19 17:27:37;;;;;;;42.58;20.90;;;;;;;12.49;64.74;98258.16;7791835;32;37841;-80
2023/10/19 17:31:54;;;;;;;42.78;22.45;;;;;;;12.76;63.60;98266.00;7791752;32;39369;-80
2023/10/19 17:36:12;;;;;;;43.90;21.65;;;;;;;12.69;63.92;98264.88;7791467;32;40736;-80
2023/10/19 17:40:29;;;;;;;40.38;20.48;;;;;;;12.72;63.57;98259.56;7791744;32;37889;-80
2023/10/19 17:44:45;;;;;;;49.25;22.23;;;;;;;12.66;63.96;98251.84;7792460;32;37190;-81
2023/10/19 17:49:02;;;;;;;46.33;21.80;;;;;;;12.67;63.73;98240.59;7792360;32;40156;-81
2023/10/19 17:53:18;;;;;;;47.10;21.67;;;;;;;12.42;64.81;98241.41;7792194;32;40715;-80
2023/10/19 17:57:34;;;;;;;50.17;22.87;;;;;;;12.37;65.44;98237.72;7791932;32;38763;-80
2023/10/19 18:01:51;;;;;;;46.50;22.92;;;;;;;12.80;63.73;98236.09;7792205;32;37213;-81
2023/10/19 18:06:08;;;;;;;42.20;21.15;;;;;;;12.54;65.02;98236.91;7792269;32;39287;-80
2023/10/19 18:10:28;;;;;;;38.38;20.75;;;;;;;12.68;64.05;98225.81;7792059;32;40528;-80
2023/10/19 18:14:45;;;;;;;40.15;20.73;;;;;;;12.73;63.50;98222.91;7792036;32;37988;-80
2023/10/19 18:19:01;;;;;;;38.88;20.50;;;;;;;12.82;63.65;98202.94;7791965;32;37168;-80
2023/10/19 18:23:17;;;;;;;39.70;19.83;;;;;;;12.49;64.39;98214.41;7791951;32;39286;-81
2023/10/19 18:27:34;;;;;;;35.65;18.55;;;;;;;12.56;64.56;98201.84;7791856;32;40053;-80
2023/10/19 18:31:50;;;;;;;32.53;18.80;;;;;;;12.90;63.38;98193.88;7791684;32;38740;-80
2023/10/19 18:36:08;;;;;;;36.65;18.95;;;;;;;12.97;62.78;98196.97;7789463;32;37133;-80
2023/10/19 18:40:29;;;;;;;33.50;19.25;;;;;;;13.00;62.89;98200.94;7785953;32;38650;-78
2023/10/19 18:44:49;;;;;;;33.50;17.35;;;;;;;13.12;62.80;98177.28;7769622;32;40865;-80
2023/10/19 18:49:08;;;;;;;36.88;17.90;;;;;;;12.69;64.60;98175.44;7771588;32;37988;-79
2023/10/19 18:53:27;;;;;;;31.40;17.08;;;;;;;12.82;64.04;98170.91;7764235;32;37967;-79
2023/10/19 18:57:45;;;;;;;31.08;17.52;;;;;;;13.00;63.27;98165.41;7782522;32;40080;-80
2023/10/19 19:02:05;;;;;;;27.98;16.77;;;;;;;12.94;63.27;98162.03;7790997;32;40595;-80
2023/10/19 19:06:23;;;;;;;32.45;17.62;;;;;;;12.61;64.27;98161.78;7775230;32;37717;-79
2023/10/19 19:10:39;;;;;;;30.45;17.40;;;;;;;12.82;63.72;98159.19;7784731;32;37181;-81
2023/10/19 19:14:55;;;;;;;30.40;17.85;;;;;;;12.71;63.96;98165.00;7794040;32;39619;-80
2023/10/19 19:19:12;;;;;;;28.67;16.45;;;;;;;12.83;63.52;98160.78;7777467;32;40023;-80
2023/10/19 19:23:31;;;;;;;29.40;17.48;;;;;;;12.75;63.63;98149.53;7793637;32;38661;-80
2023/10/19 19:27:48;;;;;;;30.75;16.90;;;;;;;12.62;64.49;98144.28;7794074;32;37450;-79
2023/10/19 19:32:06;;;;;;;28.80;15.85;;;;;;;12.72;64.24;98150.19;7794029;32;39367;-80
2023/10/19 19:36:23;;;;;;;27.42;15.77;;;;;;;12.66;64.43;98154.25;7780396;32;40293;-81
2023/10/19 19:40:42;;;;;;;27.92;15.60;;;;;;;12.79;64.51;98166.09;7783321;32;38952;-82
2023/10/19 19:44:58;;;;;;;29.45;16.50;;;;;;;12.54;65.29;98171.31;7775348;32;38020;-80
2023/10/19 19:49:15;;;;;;;28.40;16.10;;;;;;;12.37;66.20;98152.19;7767538;32;39149;-78
2023/10/19 19:53:31;;;;;;;28.65;16.37;;;;;;;12.53;65.26;98145.09;7765276;32;39977;-83
2023/10/19 19:57:48;;;;;;;27.92;16.25;;;;;;;12.64;65.26;98164.72;7780693;32;38015;-83
2023/10/19 20:02:05;;;;;;;24.30;14.65;;;;;;;12.60;65.57;98155.53;7793491;32;37252;-82